createdAt,value
2022-09-20T00:01:35.866Z,98969.34
2022-09-20T00:04:07.040Z,98970.03
2022-09-20T00:06:35.413Z,98976.50
2022-09-20T00:09:04.736Z,98974.19
2022-09-20T00:11:34.982Z,98971.75
2022-09-20T00:14:08.406Z,98973.69
2022-09-20T00:16:40.998Z,98972.03
2022-09-20T00:19:09.317Z,98971.59
2022-09-20T00:21:37.840Z,98962.81
2022-09-20T00:24:06.074Z,98969.81
2022-09-20T00:26:33.919Z,98954.72
2022-09-20T00:29:01.637Z,98951.00
2022-09-20T00:31:29.269Z,98951.97
2022-09-20T00:34:16.961Z,98947.53
2022-09-20T00:36:45.190Z,98951.72
2022-09-20T00:39:15.598Z,98955.19
2022-09-20T00:41:43.986Z,98948.22
2022-09-20T00:44:57.131Z,98951.34
2022-09-20T00:47:44.676Z,98950.06
2022-09-20T00:50:25.407Z,98943.38
2022-09-20T00:53:06.295Z,98946.81
2022-09-20T00:55:38.200Z,98944.84
2022-09-20T00:58:06.990Z,98938.56
2022-09-20T01:00:34.494Z,98945.53
2022-09-20T01:03:09.017Z,98948.13
2022-09-20T01:05:38.277Z,98938.56
2022-09-20T01:08:07.000Z,98939.22
2022-09-20T01:10:34.767Z,98940.72
2022-09-20T01:13:02.874Z,98933.56
2022-09-20T01:15:32.936Z,98934.22
2022-09-20T01:18:03.822Z,98930.66
2022-09-20T01:20:42.132Z,98929.97
2022-09-20T01:23:21.603Z,98929.25
2022-09-20T01:26:09.940Z,98939.66
2022-09-20T01:28:42.303Z,98924.84
2022-09-20T01:31:26.755Z,98924.53
2022-09-20T01:34:09.575Z,98930.72
2022-09-20T01:36:53.170Z,98926.69
2022-09-20T01:39:52.392Z,98927.19
2022-09-20T01:42:30.029Z,98930.63
2022-09-20T01:45:09.851Z,98929.13
2022-09-20T01:47:56.816Z,98923.78
2022-09-20T01:50:45.523Z,98927.69
2022-09-20T01:54:00.330Z,98924.34
2022-09-20T01:56:44.496Z,98920.75
2022-09-20T01:59:51.388Z,98922.84
2022-09-20T02:03:08.515Z,98925.78
2022-09-20T02:05:47.653Z,98928.50
2022-09-20T02:08:51.773Z,98925.56
2022-09-20T02:11:23.461Z,98929.59
2022-09-20T02:14:27.510Z,98931.34
2022-09-20T02:17:05.108Z,98926.69
2022-09-20T02:19:38.604Z,98923.25
2022-09-20T02:22:31.375Z,98917.06
2022-09-20T02:25:33.194Z,98920.63
2022-09-20T02:28:42.074Z,98930.16
2022-09-20T02:31:36.734Z,98924.41
2022-09-20T02:34:42.814Z,98925.22
2022-09-20T02:37:52.946Z,98919.28
2022-09-20T02:41:07.000Z,98910.88
2022-09-20T02:44:16.585Z,98913.88
2022-09-20T02:47:02.234Z,98921.59
2022-09-20T02:50:08.244Z,98920.16
2022-09-20T02:53:04.271Z,98921.66
2022-09-20T02:55:56.431Z,98921.16
2022-09-20T02:58:38.789Z,98918.06
2022-09-20T03:01:24.683Z,98916.94
2022-09-20T03:04:25.725Z,98920.53
2022-09-20T03:07:58.060Z,98921.88
2022-09-20T03:10:54.807Z,98928.84
2022-09-20T03:13:40.560Z,98922.50
2022-09-20T03:16:30.816Z,98926.97
2022-09-20T03:19:00.849Z,98928.28
2022-09-20T03:21:34.784Z,98922.72
2022-09-20T03:24:33.361Z,98919.03
2022-09-20T03:27:24.215Z,98910.56
2022-09-20T03:30:26.287Z,98902.63
2022-09-20T03:33:42.512Z,98910.88
2022-09-20T03:36:54.281Z,98901.47
2022-09-20T03:39:43.226Z,98911.84
2022-09-20T03:42:29.650Z,98913.41
2022-09-20T03:45:35.293Z,98905.84
2022-09-20T03:48:37.060Z,98905.41
2022-09-20T03:51:49.643Z,98911.50
2022-09-20T03:54:48.044Z,98903.81
2022-09-20T03:58:16.495Z,98907.22
2022-09-20T04:01:12.414Z,98905.06
2022-09-20T04:04:13.015Z,98907.84
2022-09-20T04:07:08.653Z,98910.00
2022-09-20T04:10:00.359Z,98904.50
2022-09-20T04:12:50.449Z,98903.38
2022-09-20T04:15:46.120Z,98904.69
2022-09-20T04:18:46.439Z,98906.84
2022-09-20T04:21:31.626Z,98902.31
2022-09-20T04:24:30.022Z,98900.38
2022-09-20T04:27:06.099Z,98897.47
2022-09-20T04:30:20.995Z,98894.72
2022-09-20T04:32:54.659Z,98891.31
2022-09-20T04:36:25.832Z,98893.28
2022-09-20T04:39:06.177Z,98898.22
2022-09-20T04:42:22.045Z,98900.81
2022-09-20T04:44:58.089Z,98894.94
2022-09-20T04:47:45.108Z,98897.06
2022-09-20T04:50:41.578Z,98896.94
2022-09-20T04:53:22.341Z,98890.75
2022-09-20T04:55:55.605Z,98891.09
2022-09-20T04:58:50.895Z,98893.81
2022-09-20T05:02:09.178Z,98893.84
2022-09-20T05:04:55.296Z,98914.19
2022-09-20T05:08:05.087Z,98909.91
2022-09-20T05:11:30.588Z,98909.25
2022-09-20T05:14:54.015Z,98906.31
2022-09-20T05:17:32.842Z,98912.56
2022-09-20T05:20:28.000Z,98920.41
2022-09-20T05:23:15.244Z,98915.41
2022-09-20T05:26:08.315Z,98910.72
2022-09-20T05:29:02.288Z,98912.34
2022-09-20T05:32:12.680Z,98909.78
2022-09-20T05:35:05.376Z,98907.66
2022-09-20T05:38:06.128Z,98915.81
2022-09-20T05:41:14.239Z,98914.53
2022-09-20T05:44:12.656Z,98921.53
2022-09-20T05:47:08.857Z,98926.47
2022-09-20T05:50:13.957Z,98927.28
2022-09-20T05:53:38.015Z,98914.75
2022-09-20T05:57:07.328Z,98927.28
2022-09-20T06:00:17.056Z,98919.31
2022-09-20T06:03:10.455Z,98914.69
2022-09-20T06:06:04.804Z,98918.41
2022-09-20T06:09:05.511Z,98916.28
2022-09-20T06:12:19.374Z,98909.97
2022-09-20T06:15:13.072Z,98905.66
2022-09-20T06:17:53.215Z,98913.09
2022-09-20T06:20:37.388Z,98922.41
2022-09-20T06:23:06.214Z,98926.94
2022-09-20T06:25:56.082Z,98953.59
2022-09-20T06:28:31.000Z,98939.41
2022-09-20T06:30:58.825Z,98948.56
2022-09-20T06:33:28.993Z,98950.56
2022-09-20T06:36:23.803Z,98956.00
2022-09-20T06:39:38.461Z,98949.66
2022-09-20T06:42:06.632Z,98951.38
2022-09-20T06:44:34.093Z,98952.63
2022-09-20T06:47:01.786Z,98954.34
2022-09-20T06:49:29.428Z,98954.44
2022-09-20T06:51:57.508Z,98961.84
2022-09-20T06:54:26.987Z,98959.22
2022-09-20T06:56:54.802Z,98970.88
2022-09-20T06:59:22.313Z,98968.25
2022-09-20T07:01:50.024Z,98970.97
2022-09-20T07:04:17.572Z,98982.31
2022-09-20T07:06:45.044Z,98982.38
2022-09-20T07:09:12.625Z,98984.13
2022-09-20T07:11:40.258Z,98990.81
2022-09-20T07:14:07.958Z,98991.88
2022-09-20T07:16:36.876Z,98994.66
2022-09-20T07:19:06.563Z,98995.53
2022-09-20T07:21:34.136Z,98997.19
2022-09-20T07:24:02.416Z,98992.28
2022-09-20T07:26:31.078Z,99003.22
2022-09-20T07:29:00.148Z,99003.13
2022-09-20T07:31:29.648Z,99009.25
2022-09-20T07:33:57.568Z,99000.88
2022-09-20T07:36:25.148Z,99010.25
2022-09-20T07:38:53.249Z,99011.50
2022-09-20T07:41:23.307Z,99009.25
2022-09-20T07:43:51.875Z,99013.31
2022-09-20T07:46:23.073Z,98999.06
2022-09-20T07:48:50.520Z,99018.72
2022-09-20T07:51:18.058Z,99004.94
2022-09-20T07:53:45.560Z,99003.59
2022-09-20T07:56:16.026Z,99015.88
2022-09-20T07:58:48.604Z,99010.31
2022-09-20T08:01:21.089Z,99014.09
2022-09-20T08:03:48.906Z,99004.84
2022-09-20T08:06:18.456Z,99002.16
2022-09-20T08:08:45.952Z,99011.31
2022-09-20T08:11:17.367Z,98997.22
2022-09-20T08:14:08.056Z,98998.00
2022-09-20T08:16:50.245Z,98993.59
2022-09-20T08:19:23.564Z,98982.34
2022-09-20T08:21:55.129Z,98992.81
2022-09-20T08:24:22.787Z,98992.78
2022-09-20T08:26:50.266Z,98998.00
2022-09-20T08:29:17.778Z,98991.81
2022-09-20T08:31:46.437Z,98989.78
2022-09-20T08:34:16.129Z,98995.63
2022-09-20T08:36:47.165Z,98983.44
2022-09-20T08:42:22.199Z,98988.28
2022-09-20T08:45:33.824Z,98988.03
2022-09-20T08:48:09.797Z,98979.34
2022-09-20T08:50:37.909Z,98972.22
2022-09-20T08:53:05.423Z,98967.72
2022-09-20T08:55:37.608Z,98965.78
2022-09-20T08:58:08.848Z,98970.81
2022-09-20T09:00:39.820Z,98964.72
2022-09-20T09:03:14.354Z,98964.09
2022-09-20T09:05:45.437Z,98955.38
2022-09-20T09:08:21.330Z,98957.66
2022-09-20T09:10:55.131Z,98952.56
2022-09-20T09:13:42.294Z,98938.34
2022-09-20T09:16:22.018Z,98943.84
2022-09-20T09:18:51.516Z,98945.53
2022-09-20T09:21:25.944Z,98937.38
2022-09-20T09:24:09.494Z,98933.94
2022-09-20T09:26:40.782Z,98927.50
2022-09-20T09:29:20.502Z,98921.72
2022-09-20T09:31:53.076Z,98935.25
2022-09-20T09:34:38.899Z,98914.69
2022-09-20T09:37:24.146Z,98920.13
2022-09-20T09:40:18.009Z,98906.50
2022-09-20T09:42:59.401Z,98913.28
2022-09-20T09:45:40.872Z,98920.44
2022-09-20T09:48:33.251Z,98912.56
2022-09-20T09:51:23.162Z,98901.19
2022-09-20T09:53:51.496Z,98910.56
2022-09-20T09:57:04.743Z,98895.84
2022-09-20T09:59:54.973Z,98876.56
2022-09-20T10:03:20.773Z,98875.50
2022-09-20T10:06:16.708Z,98881.81
2022-09-20T10:09:13.020Z,98888.72
2022-09-20T10:12:15.611Z,98889.41
2022-09-20T10:14:55.398Z,98887.50
2022-09-20T10:18:17.263Z,98873.59
2022-09-20T10:21:39.069Z,98876.09
2022-09-20T10:24:33.309Z,98892.28
2022-09-20T10:27:30.661Z,98890.63
2022-09-20T10:30:14.474Z,98892.34
2022-09-20T10:32:59.857Z,98894.50
2022-09-20T10:36:07.004Z,98887.84
2022-09-20T10:38:57.473Z,98878.81
2022-09-20T10:42:08.391Z,98862.38
2022-09-20T10:45:02.279Z,98878.75
2022-09-20T10:47:59.728Z,98881.88
2022-09-20T10:50:51.736Z,98878.03
2022-09-20T10:53:49.569Z,98892.88
2022-09-20T10:56:40.071Z,98869.13
2022-09-20T10:59:23.551Z,98867.72
2022-09-20T11:02:14.087Z,98868.81
2022-09-20T11:05:14.393Z,98867.69
2022-09-20T11:08:12.104Z,98870.28
2022-09-20T11:10:48.971Z,98884.91
2022-09-20T11:13:32.294Z,98884.78
2022-09-20T11:16:53.609Z,98878.03
2022-09-20T11:20:11.353Z,98879.38
2022-09-20T11:22:48.232Z,98875.56
2022-09-20T11:25:44.332Z,98876.28
2022-09-20T11:28:23.157Z,98880.38
2022-09-20T11:31:35.975Z,98877.66
2022-09-20T11:34:27.535Z,98868.97
2022-09-20T11:37:03.137Z,98864.94
2022-09-20T11:39:54.491Z,98858.59
2022-09-20T11:42:27.872Z,98865.03
2022-09-20T11:44:55.918Z,98869.03
2022-09-20T11:48:09.815Z,98854.34
2022-09-20T11:51:22.142Z,98864.66
2022-09-20T11:54:33.105Z,98861.16
2022-09-20T11:57:00.672Z,98859.16
2022-09-20T11:59:41.010Z,98856.69
2022-09-20T12:02:27.294Z,98854.53
2022-09-20T12:04:55.981Z,98856.16
2022-09-20T12:07:44.371Z,98840.00
2022-09-20T12:10:42.845Z,98830.78
2022-09-20T12:13:25.359Z,98823.88
2022-09-20T12:16:40.976Z,98831.13
2022-09-20T12:19:15.124Z,98824.94
2022-09-20T12:22:00.658Z,98814.41
2022-09-20T12:24:45.327Z,98830.56
2022-09-20T12:27:26.331Z,98823.84
2022-09-20T12:30:05.453Z,98818.25
2022-09-20T12:32:52.201Z,98810.44
2022-09-20T12:35:39.079Z,98828.22
2022-09-20T12:38:21.495Z,98832.16
2022-09-20T12:41:27.755Z,98827.59
2022-09-20T12:44:03.111Z,98822.84
2022-09-20T12:46:53.099Z,98823.53
2022-09-20T12:49:48.258Z,98822.81
2022-09-20T12:52:43.076Z,98822.66
2022-09-20T12:55:41.284Z,98815.25
2022-09-20T12:58:13.383Z,98809.50
2022-09-20T13:01:14.738Z,98799.66
2022-09-20T13:03:46.896Z,98783.78
2022-09-20T13:06:14.972Z,98785.31
2022-09-20T13:09:00.844Z,98782.50
2022-09-20T13:11:54.312Z,98777.84
2022-09-20T13:14:28.134Z,98780.28
2022-09-20T13:17:19.336Z,98774.25
2022-09-20T13:19:49.327Z,98778.94
2022-09-20T13:22:33.145Z,98769.53
2022-09-20T13:25:05.568Z,98767.34
2022-09-20T13:27:38.567Z,98767.19
2022-09-20T13:30:24.347Z,98760.03
2022-09-20T13:32:52.805Z,98763.53
2022-09-20T13:35:24.044Z,98765.09
2022-09-20T13:38:02.230Z,98773.13
2022-09-20T13:40:50.048Z,98770.03
2022-09-20T13:43:31.406Z,98772.38
2022-09-20T13:46:12.317Z,98764.25
2022-09-20T13:48:40.846Z,98763.69
2022-09-20T13:51:40.718Z,98758.94
2022-09-20T13:54:18.624Z,98755.44
2022-09-20T13:56:46.153Z,98751.72
2022-09-20T13:59:19.384Z,98751.66
2022-09-20T14:01:54.481Z,98753.69
2022-09-20T14:04:28.992Z,98747.91
2022-09-20T14:06:59.754Z,98744.06
2022-09-20T14:09:35.128Z,98758.91
2022-09-20T14:12:06.453Z,98753.66
2022-09-20T14:14:35.750Z,98755.38
2022-09-20T14:17:08.798Z,98752.41
2022-09-20T14:19:41.857Z,98760.53
2022-09-20T14:22:20.944Z,98753.41
2022-09-20T14:25:25.540Z,98757.31
2022-09-20T14:28:19.761Z,98759.03
2022-09-20T14:30:48.836Z,98761.72
2022-09-20T14:33:21.199Z,98761.69
2022-09-20T14:35:51.514Z,98764.19
2022-09-20T14:38:26.831Z,98758.38
2022-09-20T14:40:54.531Z,98764.63
2022-09-20T14:43:34.845Z,98764.97
2022-09-20T14:46:08.710Z,98757.03
2022-09-20T14:48:41.380Z,98751.91
2022-09-20T14:51:29.195Z,98758.16
2022-09-20T14:54:05.911Z,98759.00
2022-09-20T14:56:39.530Z,98754.63
2022-09-20T14:59:13.928Z,98763.16
2022-09-20T15:01:55.905Z,98762.66
2022-09-20T15:04:27.382Z,98769.59
2022-09-20T15:07:01.028Z,98765.94
2022-09-20T15:09:30.033Z,98770.25
2022-09-20T15:12:17.821Z,98776.97
2022-09-20T15:14:46.991Z,98770.50
2022-09-20T15:17:18.556Z,98785.25
2022-09-20T15:19:47.993Z,98771.09
2022-09-20T15:22:15.713Z,98777.97
2022-09-20T15:24:43.498Z,98777.16
2022-09-20T15:27:14.261Z,98780.00
2022-09-20T15:29:41.721Z,98785.25
2022-09-20T15:32:12.325Z,98779.41
2022-09-20T15:34:39.792Z,98789.97
2022-09-20T15:37:07.991Z,98782.44
2022-09-20T15:39:35.381Z,98786.31
2022-09-20T15:42:03.332Z,98780.63
2022-09-20T15:44:32.676Z,98785.91
2022-09-20T15:47:00.224Z,98786.25
2022-09-20T15:49:27.736Z,98787.50
2022-09-20T15:51:55.220Z,98792.94
2022-09-20T15:54:22.971Z,98793.50
2022-09-20T15:56:51.872Z,98803.13
2022-09-20T15:59:23.102Z,98799.97
2022-09-20T16:01:51.647Z,98800.31
2022-09-20T16:04:20.553Z,98799.69
2022-09-20T16:06:50.511Z,98805.84
2022-09-20T16:09:19.632Z,98816.47
2022-09-20T16:11:48.384Z,98825.28
2022-09-20T16:14:15.865Z,98828.66
2022-09-20T16:16:43.413Z,98832.66
2022-09-20T16:19:17.445Z,98833.19
2022-09-20T16:21:58.539Z,98834.06
2022-09-20T16:24:33.964Z,98840.44
2022-09-20T16:27:06.134Z,98851.97
2022-09-20T16:29:34.589Z,98854.13
2022-09-20T16:32:03.717Z,98860.50
2022-09-20T16:34:36.512Z,98870.03
2022-09-20T16:37:14.821Z,98869.00
2022-09-20T16:39:42.829Z,98873.41
2022-09-20T16:42:12.883Z,98875.75
2022-09-20T16:44:42.962Z,98867.47
2022-09-20T16:47:18.687Z,98863.84
2022-09-20T16:49:47.333Z,98876.19
2022-09-20T16:52:15.050Z,98870.84
2022-09-20T16:54:42.542Z,98877.50
2022-09-20T16:57:10.021Z,98889.16
2022-09-20T16:59:37.501Z,98886.88
2022-09-20T17:02:05.031Z,98888.22
2022-09-20T17:04:32.551Z,98888.91
2022-09-20T17:07:01.753Z,98881.88
2022-09-20T17:09:29.342Z,98886.88
2022-09-20T17:11:56.886Z,98881.84
2022-09-20T17:14:25.043Z,98895.19
2022-09-20T17:16:52.596Z,98893.72
2022-09-20T17:19:21.301Z,98906.59
2022-09-20T17:21:50.959Z,98902.59
2022-09-20T17:24:23.191Z,98906.41
2022-09-20T17:26:52.525Z,98917.25
2022-09-20T17:29:21.261Z,98914.81
2022-09-20T17:31:55.490Z,98928.59
2022-09-20T17:34:24.614Z,98923.69
2022-09-20T17:36:54.178Z,98927.47
2022-09-20T17:39:21.683Z,98927.28
2022-09-20T17:41:50.735Z,98930.91
2022-09-20T17:44:18.842Z,98936.81
2022-09-20T17:46:49.912Z,98934.00
2022-09-20T17:49:20.891Z,98935.84
2022-09-20T17:51:54.495Z,98932.13
2022-09-20T17:54:24.596Z,98934.94
2022-09-20T17:56:55.932Z,98942.16
2022-09-20T17:59:24.652Z,98944.63
2022-09-20T18:01:54.348Z,98953.31
2022-09-20T18:04:24.421Z,98948.91
2022-09-20T18:06:54.733Z,98954.78
2022-09-20T18:09:25.279Z,98951.53
2022-09-20T18:11:55.730Z,98945.00
2022-09-20T18:14:27.636Z,98952.84
2022-09-20T18:17:00.723Z,98947.31
2022-09-20T18:19:35.748Z,98952.84
2022-09-20T18:22:04.142Z,98955.97
2022-09-20T18:24:31.735Z,98956.78
2022-09-20T18:27:00.826Z,98968.88
2022-09-20T18:29:31.827Z,98956.44
2022-09-20T18:32:00.829Z,98963.16
2022-09-20T18:34:33.549Z,98956.94
2022-09-20T18:37:03.783Z,98966.06
2022-09-20T18:39:34.764Z,98967.06
2022-09-20T18:42:03.510Z,98963.63
2022-09-20T18:44:34.308Z,98971.13
2022-09-20T18:47:05.728Z,98974.06
2022-09-20T18:49:33.395Z,98977.97
2022-09-20T18:52:01.543Z,98972.13
2022-09-20T18:54:33.208Z,98973.41
2022-09-20T18:57:01.076Z,98974.56
2022-09-20T18:59:29.061Z,98986.13
2022-09-20T19:02:31.296Z,98987.13
2022-09-20T19:05:20.081Z,98985.16
2022-09-20T19:08:05.547Z,98978.97
2022-09-20T19:10:51.356Z,98977.00
2022-09-20T19:13:55.070Z,98982.56
2022-09-20T19:16:31.961Z,98985.47
2022-09-20T19:19:26.416Z,98982.56
2022-09-20T19:22:34.823Z,98982.38
2022-09-20T19:25:43.426Z,98990.19
2022-09-20T19:28:14.735Z,98991.84
2022-09-20T19:30:43.137Z,98987.09
2022-09-20T19:33:17.776Z,98980.75
2022-09-20T19:35:50.471Z,98995.91
2022-09-20T19:38:40.674Z,98984.63
2022-09-20T19:41:38.375Z,98989.03
2022-09-20T19:44:54.794Z,98994.25
2022-09-20T19:48:07.049Z,98987.91
2022-09-20T19:50:52.877Z,98998.16
2022-09-20T19:53:28.076Z,98991.75
2022-09-20T19:56:24.715Z,98993.72
2022-09-20T19:58:54.152Z,98995.50
2022-09-20T20:01:23.967Z,98993.38
2022-09-20T20:03:55.861Z,99001.75
2022-09-20T20:06:39.072Z,98999.75
2022-09-20T20:09:29.146Z,99004.78
2022-09-20T20:12:25.692Z,99008.22
2022-09-20T20:15:16.225Z,99012.31
2022-09-20T20:18:39.051Z,99005.31
2022-09-20T20:21:24.726Z,99004.19
2022-09-20T20:24:41.394Z,99011.53
2022-09-20T20:27:08.923Z,99005.81
2022-09-20T20:29:36.386Z,99016.03
2022-09-20T20:32:03.968Z,99016.84
2022-09-20T20:34:31.416Z,99019.75
2022-09-20T20:37:00.963Z,99012.09
2022-09-20T20:39:29.654Z,99014.00
2022-09-20T20:42:02.564Z,99019.84
2022-09-20T20:44:37.780Z,99007.81
2022-09-20T20:47:07.119Z,99011.22
2022-09-20T20:49:35.934Z,99019.69
2022-09-20T20:52:05.124Z,99009.56
2022-09-20T20:54:32.960Z,99020.78
2022-09-20T20:57:00.646Z,99025.97
2022-09-20T20:59:29.822Z,99018.81
2022-09-20T21:01:57.332Z,99023.38
2022-09-20T21:04:25.393Z,99028.41
2022-09-20T21:06:52.823Z,99021.41
2022-09-20T21:09:20.359Z,99030.50
2022-09-20T21:11:48.462Z,99022.19
2022-09-20T21:14:16.493Z,99023.28
2022-09-20T21:16:45.037Z,99029.31
2022-09-20T21:19:15.618Z,99026.88
2022-09-20T21:21:46.043Z,99023.91
2022-09-20T21:24:17.351Z,99023.63
2022-09-20T21:26:46.529Z,99019.38
2022-09-20T21:29:16.646Z,99023.75
2022-09-20T21:31:46.696Z,99025.06
2022-09-20T21:34:15.947Z,99023.09
2022-09-20T21:36:44.848Z,99020.66
2022-09-20T21:39:13.290Z,99027.81
2022-09-20T21:41:41.500Z,99027.66
2022-09-20T21:44:12.287Z,99025.72
2022-09-20T21:46:42.156Z,99028.84
2022-09-20T21:49:12.376Z,99032.38
2022-09-20T21:51:42.690Z,99033.19
2022-09-20T21:54:11.248Z,99032.03
2022-09-20T21:56:40.522Z,99039.84
2022-09-20T21:59:08.216Z,99034.63
2022-09-20T22:01:40.312Z,99041.78
2022-09-20T22:04:11.631Z,99044.56
2022-09-20T22:06:42.802Z,99038.03
2022-09-20T22:09:17.739Z,99039.34
2022-09-20T22:11:48.521Z,99038.66
2022-09-20T22:14:19.677Z,99033.78
2022-09-20T22:16:49.188Z,99035.13
2022-09-20T22:19:19.192Z,99044.41
2022-09-20T22:21:49.747Z,99051.34
2022-09-20T22:24:18.023Z,99040.44
2022-09-20T22:26:51.036Z,99033.94
2022-09-20T22:29:18.834Z,99033.09
2022-09-20T22:31:48.122Z,99031.94
2022-09-20T22:34:21.317Z,99044.00
2022-09-20T22:36:49.324Z,99046.63
2022-09-20T22:39:17.312Z,99052.06
2022-09-20T22:41:47.721Z,99041.66
2022-09-20T22:44:15.450Z,99039.41
2022-09-20T22:46:42.915Z,99040.97
2022-09-20T22:49:10.457Z,99036.59
2022-09-20T22:51:38.679Z,99036.28
2022-09-20T22:54:10.150Z,99034.22
2022-09-20T22:56:41.217Z,99037.63
2022-09-20T22:59:12.751Z,99026.88
2022-09-20T23:01:47.949Z,99035.16
2022-09-20T23:04:19.367Z,99033.53
2022-09-20T23:06:57.007Z,99028.84
2022-09-20T23:09:28.210Z,99035.97
2022-09-20T23:11:56.508Z,99018.59
2022-09-20T23:14:24.019Z,99038.44
2022-09-20T23:16:51.660Z,99023.31
2022-09-20T23:19:19.173Z,99030.31
2022-09-20T23:21:46.850Z,99028.22
2022-09-20T23:24:16.602Z,99030.81
2022-09-20T23:26:44.766Z,99034.75
2022-09-20T23:29:16.267Z,99032.34
2022-09-20T23:31:46.680Z,99028.31
2022-09-20T23:34:16.297Z,99033.88
2022-09-20T23:36:45.138Z,99034.88
2022-09-20T23:39:13.149Z,99031.00
2022-09-20T23:41:41.559Z,99035.25
2022-09-20T23:44:10.358Z,99030.53
2022-09-20T23:46:39.065Z,99032.47
2022-09-20T23:49:09.029Z,99029.50
2022-09-20T23:51:37.367Z,99021.34
2022-09-20T23:54:05.949Z,99026.78
2022-09-20T23:56:33.589Z,99027.19
2022-09-20T23:59:01.011Z,99026.53
